sensor_id;sensor_type;location;lat;lon;timestamp;P1;durP1;ratioP1;P2;durP2;ratioP2
59189;SDS011;50749;51.636;4.948;2022-11-15T00:01:49;13.30;;;5.50;;
59189;SDS011;50749;51.636;4.948;2022-11-15T00:04:15;11.70;;;6.20;;
59189;SDS011;50749;51.636;4.948;2022-11-15T00:06:41;9.02;;;4.85;;
59189;SDS011;50749;51.636;4.948;2022-11-15T00:09:07;14.18;;;5.85;;
59189;SDS011;50749;51.636;4.948;2022-11-15T00:11:33;11.20;;;5.72;;
59189;SDS011;50749;51.636;4.948;2022-11-15T00:13:58;8.48;;;5.95;;
59189;SDS011;50749;51.636;4.948;2022-11-15T00:16:27;12.68;;;5.32;;
59189;SDS011;50749;51.636;4.948;2022-11-15T00:18:53;8.85;;;5.30;;
59189;SDS011;50749;51.636;4.948;2022-11-15T00:21:19;10.48;;;5.25;;
59189;SDS011;50749;51.636;4.948;2022-11-15T00:23:45;13.98;;;5.70;;
59189;SDS011;50749;51.636;4.948;2022-11-15T00:26:12;10.65;;;5.63;;
59189;SDS011;50749;51.636;4.948;2022-11-15T00:28:39;10.60;;;6.25;;
59189;SDS011;50749;51.636;4.948;2022-11-15T00:31:07;10.07;;;4.93;;
59189;SDS011;50749;51.636;4.948;2022-11-15T00:33:34;9.50;;;4.82;;
59189;SDS011;50749;51.636;4.948;2022-11-15T00:36:01;10.77;;;5.60;;
59189;SDS011;50749;51.636;4.948;2022-11-15T00:38:33;10.32;;;5.10;;
59189;SDS011;50749;51.636;4.948;2022-11-15T00:41:00;7.75;;;4.82;;
59189;SDS011;50749;51.636;4.948;2022-11-15T00:43:27;9.95;;;4.80;;
59189;SDS011;50749;51.636;4.948;2022-11-15T00:45:54;9.27;;;5.22;;
59189;SDS011;50749;51.636;4.948;2022-11-15T00:48:20;12.65;;;4.93;;
59189;SDS011;50749;51.636;4.948;2022-11-15T00:50:46;11.18;;;4.82;;
59189;SDS011;50749;51.636;4.948;2022-11-15T00:53:11;10.35;;;5.65;;
59189;SDS011;50749;51.636;4.948;2022-11-15T00:55:37;8.63;;;4.93;;
59189;SDS011;50749;51.636;4.948;2022-11-15T00:58:03;13.52;;;5.47;;
59189;SDS011;50749;51.636;4.948;2022-11-15T01:00:29;10.48;;;5.28;;
59189;SDS011;50749;51.636;4.948;2022-11-15T01:02:55;11.98;;;5.00;;
59189;SDS011;50749;51.636;4.948;2022-11-15T01:05:21;7.70;;;4.70;;
59189;SDS011;50749;51.636;4.948;2022-11-15T01:07:46;9.23;;;5.18;;
59189;SDS011;50749;51.636;4.948;2022-11-15T01:10:12;9.23;;;4.90;;
59189;SDS011;50749;51.636;4.948;2022-11-15T01:12:38;10.77;;;5.63;;
59189;SDS011;50749;51.636;4.948;2022-11-15T01:15:04;7.40;;;4.57;;
59189;SDS011;50749;51.636;4.948;2022-11-15T01:17:30;8.02;;;4.57;;
59189;SDS011;50749;51.636;4.948;2022-11-15T01:19:57;9.90;;;5.93;;
59189;SDS011;50749;51.636;4.948;2022-11-15T01:22:22;11.50;;;4.90;;
59189;SDS011;50749;51.636;4.948;2022-11-15T01:24:49;9.50;;;4.45;;
59189;SDS011;50749;51.636;4.948;2022-11-15T01:27:15;8.18;;;4.95;;
59189;SDS011;50749;51.636;4.948;2022-11-15T01:29:42;9.50;;;5.00;;
59189;SDS011;50749;51.636;4.948;2022-11-15T01:32:07;10.65;;;4.93;;
59189;SDS011;50749;51.636;4.948;2022-11-15T01:34:33;11.00;;;5.03;;
59189;SDS011;50749;51.636;4.948;2022-11-15T01:36:59;8.65;;;4.60;;
59189;SDS011;50749;51.636;4.948;2022-11-15T01:39:25;8.85;;;4.43;;
59189;SDS011;50749;51.636;4.948;2022-11-15T01:41:51;8.68;;;5.32;;
59189;SDS011;50749;51.636;4.948;2022-11-15T01:46:59;7.38;;;4.20;;
59189;SDS011;50749;51.636;4.948;2022-11-15T01:49:28;7.63;;;4.40;;
59189;SDS011;50749;51.636;4.948;2022-11-15T01:51:57;8.85;;;4.60;;
59189;SDS011;50749;51.636;4.948;2022-11-15T01:54:25;7.90;;;4.90;;
59189;SDS011;50749;51.636;4.948;2022-11-15T01:56:53;5.97;;;4.00;;
59189;SDS011;50749;51.636;4.948;2022-11-15T01:59:26;7.93;;;4.72;;
59189;SDS011;50749;51.636;4.948;2022-11-15T02:01:53;5.85;;;4.25;;
59189;SDS011;50749;51.636;4.948;2022-11-15T02:04:20;10.57;;;4.60;;
59189;SDS011;50749;51.636;4.948;2022-11-15T02:06:50;7.05;;;4.07;;
59189;SDS011;50749;51.636;4.948;2022-11-15T02:09:16;7.78;;;4.28;;
59189;SDS011;50749;51.636;4.948;2022-11-15T02:11:43;7.72;;;4.60;;
59189;SDS011;50749;51.636;4.948;2022-11-15T02:14:10;8.18;;;4.50;;
59189;SDS011;50749;51.636;4.948;2022-11-15T02:16:59;9.57;;;5.38;;
59189;SDS011;50749;51.636;4.948;2022-11-15T02:32:52;7.10;;;3.80;;
59189;SDS011;50749;51.636;4.948;2022-11-15T02:35:39;7.32;;;3.97;;
59189;SDS011;50749;51.636;4.948;2022-11-15T02:38:17;6.50;;;3.95;;
59189;SDS011;50749;51.636;4.948;2022-11-15T02:41:09;6.63;;;4.13;;
59189;SDS011;50749;51.636;4.948;2022-11-15T02:43:49;6.20;;;3.88;;
59189;SDS011;50749;51.636;4.948;2022-11-15T02:49:41;5.32;;;3.90;;
59189;SDS011;50749;51.636;4.948;2022-11-15T02:52:14;7.13;;;3.92;;
59189;SDS011;50749;51.636;4.948;2022-11-15T02:54:52;7.30;;;4.03;;
59189;SDS011;50749;51.636;4.948;2022-11-15T02:57:19;7.25;;;3.83;;
59189;SDS011;50749;51.636;4.948;2022-11-15T03:00:08;6.82;;;4.00;;
59189;SDS011;50749;51.636;4.948;2022-11-15T03:11:00;6.00;;;3.90;;
59189;SDS011;50749;51.636;4.948;2022-11-15T03:16:27;5.18;;;3.70;;
59189;SDS011;50749;51.636;4.948;2022-11-15T03:21:39;5.07;;;3.63;;
59189;SDS011;50749;51.636;4.948;2022-11-15T03:24:07;6.47;;;3.60;;
59189;SDS011;50749;51.636;4.948;2022-11-15T03:26:34;5.53;;;3.25;;
59189;SDS011;50749;51.636;4.948;2022-11-15T03:29:12;5.47;;;3.42;;
59189;SDS011;50749;51.636;4.948;2022-11-15T03:31:43;6.25;;;3.70;;
59189;SDS011;50749;51.636;4.948;2022-11-15T03:34:55;5.40;;;3.42;;
59189;SDS011;50749;51.636;4.948;2022-11-15T03:37:05;5.93;;;3.20;;
59189;SDS011;50749;51.636;4.948;2022-11-15T03:39:32;5.63;;;3.60;;
59189;SDS011;50749;51.636;4.948;2022-11-15T03:42:34;5.68;;;3.30;;
59189;SDS011;50749;51.636;4.948;2022-11-15T03:45:03;5.10;;;3.75;;
59189;SDS011;50749;51.636;4.948;2022-11-15T03:47:51;5.53;;;3.50;;
59189;SDS011;50749;51.636;4.948;2022-11-15T03:50:23;7.35;;;3.88;;
59189;SDS011;50749;51.636;4.948;2022-11-15T03:52:50;7.40;;;3.55;;
59189;SDS011;50749;51.636;4.948;2022-11-15T03:55:17;6.07;;;3.67;;
59189;SDS011;50749;51.636;4.948;2022-11-15T03:57:45;7.88;;;3.63;;
59189;SDS011;50749;51.636;4.948;2022-11-15T04:00:13;5.53;;;3.25;;
59189;SDS011;50749;51.636;4.948;2022-11-15T04:02:39;4.45;;;3.00;;
59189;SDS011;50749;51.636;4.948;2022-11-15T04:05:05;5.78;;;3.40;;
59189;SDS011;50749;51.636;4.948;2022-11-15T04:07:31;7.18;;;3.28;;
59189;SDS011;50749;51.636;4.948;2022-11-15T04:09:57;7.22;;;3.30;;
59189;SDS011;50749;51.636;4.948;2022-11-15T04:12:33;4.90;;;3.13;;
59189;SDS011;50749;51.636;4.948;2022-11-15T04:15:01;7.35;;;3.60;;
59189;SDS011;50749;51.636;4.948;2022-11-15T04:17:46;6.10;;;2.83;;
59189;SDS011;50749;51.636;4.948;2022-11-15T04:20:15;4.45;;;2.88;;
59189;SDS011;50749;51.636;4.948;2022-11-15T04:23:19;4.55;;;2.95;;
59189;SDS011;50749;51.636;4.948;2022-11-15T04:26:06;4.07;;;2.95;;
59189;SDS011;50749;51.636;4.948;2022-11-15T04:28:43;5.57;;;2.85;;
59189;SDS011;50749;51.636;4.948;2022-11-15T04:31:28;4.50;;;2.78;;
59189;SDS011;50749;51.636;4.948;2022-11-15T04:33:55;5.20;;;2.95;;
59189;SDS011;50749;51.636;4.948;2022-11-15T04:36:21;5.43;;;2.47;;
59189;SDS011;50749;51.636;4.948;2022-11-15T04:39:05;3.63;;;2.15;;
59189;SDS011;50749;51.636;4.948;2022-11-15T04:41:31;4.45;;;3.00;;
59189;SDS011;50749;51.636;4.948;2022-11-15T04:43:57;4.95;;;3.13;;
59189;SDS011;50749;51.636;4.948;2022-11-15T04:46:23;4.68;;;2.67;;
59189;SDS011;50749;51.636;4.948;2022-11-15T04:48:50;3.83;;;2.28;;
59189;SDS011;50749;51.636;4.948;2022-11-15T04:51:16;3.85;;;2.30;;
59189;SDS011;50749;51.636;4.948;2022-11-15T04:53:42;3.85;;;2.22;;
59189;SDS011;50749;51.636;4.948;2022-11-15T04:56:08;3.55;;;2.72;;
59189;SDS011;50749;51.636;4.948;2022-11-15T04:58:34;5.22;;;2.83;;
59189;SDS011;50749;51.636;4.948;2022-11-15T05:01:10;5.72;;;2.60;;
59189;SDS011;50749;51.636;4.948;2022-11-15T05:03:39;4.72;;;2.58;;
59189;SDS011;50749;51.636;4.948;2022-11-15T05:06:24;3.70;;;2.47;;
59189;SDS011;50749;51.636;4.948;2022-11-15T05:08:50;5.07;;;2.55;;
59189;SDS011;50749;51.636;4.948;2022-11-15T05:11:17;3.50;;;2.35;;
59189;SDS011;50749;51.636;4.948;2022-11-15T05:13:42;3.10;;;2.30;;
59189;SDS011;50749;51.636;4.948;2022-11-15T05:16:09;7.68;;;2.75;;
59189;SDS011;50749;51.636;4.948;2022-11-15T05:18:34;4.85;;;2.65;;
59189;SDS011;50749;51.636;4.948;2022-11-15T05:21:05;4.00;;;2.33;;
59189;SDS011;50749;51.636;4.948;2022-11-15T05:23:33;4.07;;;2.40;;
59189;SDS011;50749;51.636;4.948;2022-11-15T05:25:59;4.10;;;2.60;;
59189;SDS011;50749;51.636;4.948;2022-11-15T05:28:28;5.13;;;2.50;;
59189;SDS011;50749;51.636;4.948;2022-11-15T05:31:28;6.00;;;2.58;;
59189;SDS011;50749;51.636;4.948;2022-11-15T05:33:47;3.90;;;2.22;;
59189;SDS011;50749;51.636;4.948;2022-11-15T05:36:20;4.85;;;2.78;;
59189;SDS011;50749;51.636;4.948;2022-11-15T05:39:04;3.40;;;1.95;;
59189;SDS011;50749;51.636;4.948;2022-11-15T05:41:38;3.10;;;1.90;;
59189;SDS011;50749;51.636;4.948;2022-11-15T05:44:09;2.83;;;1.92;;
59189;SDS011;50749;51.636;4.948;2022-11-15T05:46:37;3.80;;;2.10;;
59189;SDS011;50749;51.636;4.948;2022-11-15T05:49:05;5.57;;;2.47;;
59189;SDS011;50749;51.636;4.948;2022-11-15T05:51:35;4.82;;;2.40;;
59189;SDS011;50749;51.636;4.948;2022-11-15T05:54:00;5.25;;;2.15;;
59189;SDS011;50749;51.636;4.948;2022-11-15T05:56:28;3.63;;;2.15;;
59189;SDS011;50749;51.636;4.948;2022-11-15T05:58:55;4.53;;;2.47;;
59189;SDS011;50749;51.636;4.948;2022-11-15T06:01:23;5.50;;;2.25;;
59189;SDS011;50749;51.636;4.948;2022-11-15T06:03:50;4.53;;;2.30;;
59189;SDS011;50749;51.636;4.948;2022-11-15T06:06:16;5.95;;;2.60;;
59189;SDS011;50749;51.636;4.948;2022-11-15T06:08:44;4.88;;;2.75;;
59189;SDS011;50749;51.636;4.948;2022-11-15T06:11:10;6.32;;;2.78;;
59189;SDS011;50749;51.636;4.948;2022-11-15T06:13:35;5.07;;;3.13;;
59189;SDS011;50749;51.636;4.948;2022-11-15T06:16:02;4.32;;;2.75;;
59189;SDS011;50749;51.636;4.948;2022-11-15T06:18:27;6.53;;;2.72;;
59189;SDS011;50749;51.636;4.948;2022-11-15T06:20:53;4.30;;;2.70;;
59189;SDS011;50749;51.636;4.948;2022-11-15T06:23:24;4.72;;;2.70;;
59189;SDS011;50749;51.636;4.948;2022-11-15T06:25:50;4.35;;;2.63;;
59189;SDS011;50749;51.636;4.948;2022-11-15T06:28:16;6.13;;;2.70;;
59189;SDS011;50749;51.636;4.948;2022-11-15T06:30:42;4.72;;;2.60;;
59189;SDS011;50749;51.636;4.948;2022-11-15T06:33:07;5.25;;;2.75;;
59189;SDS011;50749;51.636;4.948;2022-11-15T06:35:34;4.93;;;2.65;;
59189;SDS011;50749;51.636;4.948;2022-11-15T06:38:04;6.65;;;2.83;;
59189;SDS011;50749;51.636;4.948;2022-11-15T06:40:33;4.07;;;3.00;;
59189;SDS011;50749;51.636;4.948;2022-11-15T06:43:00;5.72;;;2.90;;
59189;SDS011;50749;51.636;4.948;2022-11-15T06:45:26;6.88;;;4.00;;
59189;SDS011;50749;51.636;4.948;2022-11-15T06:47:53;7.50;;;3.20;;
59189;SDS011;50749;51.636;4.948;2022-11-15T06:50:19;4.72;;;2.70;;
59189;SDS011;50749;51.636;4.948;2022-11-15T06:52:44;7.32;;;2.70;;
59189;SDS011;50749;51.636;4.948;2022-11-15T06:55:10;5.60;;;2.78;;
59189;SDS011;50749;51.636;4.948;2022-11-15T06:57:36;5.80;;;2.90;;
59189;SDS011;50749;51.636;4.948;2022-11-15T07:00:05;4.43;;;2.50;;
59189;SDS011;50749;51.636;4.948;2022-11-15T07:02:31;8.05;;;2.50;;
59189;SDS011;50749;51.636;4.948;2022-11-15T07:04:57;4.43;;;2.58;;
59189;SDS011;50749;51.636;4.948;2022-11-15T07:07:22;4.15;;;2.72;;
59189;SDS011;50749;51.636;4.948;2022-11-15T07:09:48;3.95;;;2.55;;
59189;SDS011;50749;51.636;4.948;2022-11-15T07:12:14;4.35;;;2.88;;
59189;SDS011;50749;51.636;4.948;2022-11-15T07:14:40;7.40;;;2.97;;
59189;SDS011;50749;51.636;4.948;2022-11-15T07:17:06;7.90;;;2.42;;
59189;SDS011;50749;51.636;4.948;2022-11-15T07:19:32;7.82;;;3.03;;
59189;SDS011;50749;51.636;4.948;2022-11-15T07:21:58;3.30;;;1.98;;
59189;SDS011;50749;51.636;4.948;2022-11-15T07:24:24;6.65;;;2.50;;
59189;SDS011;50749;51.636;4.948;2022-11-15T07:26:49;5.20;;;2.25;;
59189;SDS011;50749;51.636;4.948;2022-11-15T07:29:15;6.35;;;2.03;;
59189;SDS011;50749;51.636;4.948;2022-11-15T07:31:41;5.35;;;2.70;;
59189;SDS011;50749;51.636;4.948;2022-11-15T07:34:07;5.82;;;2.00;;
59189;SDS011;50749;51.636;4.948;2022-11-15T07:36:33;4.15;;;1.85;;
59189;SDS011;50749;51.636;4.948;2022-11-15T07:38:59;4.38;;;1.80;;
59189;SDS011;50749;51.636;4.948;2022-11-15T07:41:25;3.20;;;1.73;;
59189;SDS011;50749;51.636;4.948;2022-11-15T07:43:52;4.25;;;1.85;;
59189;SDS011;50749;51.636;4.948;2022-11-15T07:46:18;2.90;;;1.70;;
59189;SDS011;50749;51.636;4.948;2022-11-15T07:48:44;3.60;;;2.53;;
59189;SDS011;50749;51.636;4.948;2022-11-15T07:51:11;3.70;;;2.30;;
59189;SDS011;50749;51.636;4.948;2022-11-15T07:53:38;3.58;;;1.98;;
59189;SDS011;50749;51.636;4.948;2022-11-15T07:56:07;3.40;;;1.85;;
59189;SDS011;50749;51.636;4.948;2022-11-15T07:58:33;4.28;;;1.67;;
59189;SDS011;50749;51.636;4.948;2022-11-15T08:01:02;2.70;;;1.60;;
59189;SDS011;50749;51.636;4.948;2022-11-15T08:03:29;3.92;;;1.80;;
59189;SDS011;50749;51.636;4.948;2022-11-15T08:05:55;3.70;;;1.80;;
59189;SDS011;50749;51.636;4.948;2022-11-15T08:08:21;3.65;;;1.90;;
59189;SDS011;50749;51.636;4.948;2022-11-15T08:10:46;3.83;;;1.73;;
59189;SDS011;50749;51.636;4.948;2022-11-15T08:13:13;5.25;;;2.10;;
59189;SDS011;50749;51.636;4.948;2022-11-15T08:15:39;3.35;;;2.00;;
59189;SDS011;50749;51.636;4.948;2022-11-15T08:18:06;2.60;;;1.55;;
59189;SDS011;50749;51.636;4.948;2022-11-15T08:20:35;5.13;;;1.90;;
59189;SDS011;50749;51.636;4.948;2022-11-15T08:23:02;2.88;;;1.92;;
59189;SDS011;50749;51.636;4.948;2022-11-15T08:25:29;3.88;;;1.83;;
59189;SDS011;50749;51.636;4.948;2022-11-15T08:27:58;3.53;;;1.95;;
59189;SDS011;50749;51.636;4.948;2022-11-15T08:30:28;2.75;;;1.95;;
59189;SDS011;50749;51.636;4.948;2022-11-15T08:32:56;3.78;;;1.90;;
59189;SDS011;50749;51.636;4.948;2022-11-15T08:35:22;5.18;;;1.92;;
59189;SDS011;50749;51.636;4.948;2022-11-15T08:37:49;3.92;;;1.65;;
59189;SDS011;50749;51.636;4.948;2022-11-15T08:40:17;3.08;;;2.00;;
59189;SDS011;50749;51.636;4.948;2022-11-15T08:42:45;1.90;;;1.33;;
59189;SDS011;50749;51.636;4.948;2022-11-15T08:45:11;3.67;;;1.67;;
59189;SDS011;50749;51.636;4.948;2022-11-15T08:47:37;3.78;;;1.98;;
59189;SDS011;50749;51.636;4.948;2022-11-15T08:50:03;2.78;;;1.55;;
59189;SDS011;50749;51.636;4.948;2022-11-15T08:52:29;4.78;;;1.67;;
59189;SDS011;50749;51.636;4.948;2022-11-15T08:54:55;4.15;;;1.70;;
59189;SDS011;50749;51.636;4.948;2022-11-15T08:57:21;3.55;;;1.45;;
59189;SDS011;50749;51.636;4.948;2022-11-15T08:59:46;2.70;;;1.45;;
59189;SDS011;50749;51.636;4.948;2022-11-15T09:02:13;4.90;;;1.45;;
59189;SDS011;50749;51.636;4.948;2022-11-15T09:04:40;5.93;;;2.10;;
59189;SDS011;50749;51.636;4.948;2022-11-15T09:07:11;3.92;;;1.55;;
59189;SDS011;50749;51.636;4.948;2022-11-15T09:09:38;2.85;;;1.65;;
59189;SDS011;50749;51.636;4.948;2022-11-15T09:12:05;3.75;;;1.73;;
59189;SDS011;50749;51.636;4.948;2022-11-15T09:14:32;3.63;;;1.58;;
59189;SDS011;50749;51.636;4.948;2022-11-15T09:16:58;3.17;;;1.85;;
59189;SDS011;50749;51.636;4.948;2022-11-15T09:19:24;3.70;;;1.60;;
59189;SDS011;50749;51.636;4.948;2022-11-15T09:21:51;4.07;;;1.80;;
59189;SDS011;50749;51.636;4.948;2022-11-15T09:24:17;3.13;;;1.55;;
59189;SDS011;50749;51.636;4.948;2022-11-15T09:26:44;3.38;;;1.90;;
59189;SDS011;50749;51.636;4.948;2022-11-15T09:29:09;4.15;;;1.38;;
59189;SDS011;50749;51.636;4.948;2022-11-15T09:31:35;2.97;;;1.70;;
59189;SDS011;50749;51.636;4.948;2022-11-15T09:34:01;3.92;;;1.60;;
59189;SDS011;50749;51.636;4.948;2022-11-15T09:36:27;3.63;;;1.92;;
59189;SDS011;50749;51.636;4.948;2022-11-15T09:38:53;7.65;;;1.65;;
59189;SDS011;50749;51.636;4.948;2022-11-15T09:41:25;4.03;;;1.73;;
59189;SDS011;50749;51.636;4.948;2022-11-15T09:49:32;4.32;;;1.65;;
59189;SDS011;50749;51.636;4.948;2022-11-15T09:51:58;2.55;;;1.42;;
59189;SDS011;50749;51.636;4.948;2022-11-15T09:54:32;2.22;;;1.30;;
59189;SDS011;50749;51.636;4.948;2022-11-15T09:57:15;2.30;;;1.40;;
59189;SDS011;50749;51.636;4.948;2022-11-15T10:05:29;8.35;;;1.27;;
59189;SDS011;50749;51.636;4.948;2022-11-15T10:08:03;1.60;;;1.00;;
59189;SDS011;50749;51.636;4.948;2022-11-15T10:10:52;3.95;;;1.92;;
59189;SDS011;50749;51.636;4.948;2022-11-15T10:13:23;2.10;;;1.48;;
59189;SDS011;50749;51.636;4.948;2022-11-15T10:15:52;3.33;;;1.15;;
59189;SDS011;50749;51.636;4.948;2022-11-15T10:18:35;1.67;;;1.10;;
59189;SDS011;50749;51.636;4.948;2022-11-15T10:21:40;2.05;;;1.00;;
59189;SDS011;50749;51.636;4.948;2022-11-15T10:24:11;2.55;;;1.17;;
59189;SDS011;50749;51.636;4.948;2022-11-15T10:26:38;3.00;;;0.90;;
59189;SDS011;50749;51.636;4.948;2022-11-15T10:29:17;2.53;;;1.30;;
59189;SDS011;50749;51.636;4.948;2022-11-15T10:31:46;5.95;;;0.95;;
59189;SDS011;50749;51.636;4.948;2022-11-15T10:34:13;2.17;;;0.80;;
59189;SDS011;50749;51.636;4.948;2022-11-15T10:36:46;2.33;;;1.10;;
59189;SDS011;50749;51.636;4.948;2022-11-15T10:39:20;3.45;;;1.35;;
59189;SDS011;50749;51.636;4.948;2022-11-15T10:41:46;2.13;;;1.60;;
59189;SDS011;50749;51.636;4.948;2022-11-15T10:44:17;2.50;;;1.15;;
59189;SDS011;50749;51.636;4.948;2022-11-15T10:49:24;1.38;;;0.90;;
59189;SDS011;50749;51.636;4.948;2022-11-15T10:54:28;2.95;;;1.20;;
59189;SDS011;50749;51.636;4.948;2022-11-15T10:56:54;4.53;;;1.30;;
59189;SDS011;50749;51.636;4.948;2022-11-15T10:59:32;3.58;;;0.95;;
59189;SDS011;50749;51.636;4.948;2022-11-15T11:02:00;2.10;;;1.00;;
59189;SDS011;50749;51.636;4.948;2022-11-15T11:04:26;1.75;;;1.08;;
59189;SDS011;50749;51.636;4.948;2022-11-15T11:06:55;3.13;;;1.00;;
59189;SDS011;50749;51.636;4.948;2022-11-15T11:09:27;3.00;;;0.93;;
59189;SDS011;50749;51.636;4.948;2022-11-15T11:11:58;2.67;;;1.08;;
59189;SDS011;50749;51.636;4.948;2022-11-15T11:14:26;3.30;;;1.17;;
59189;SDS011;50749;51.636;4.948;2022-11-15T11:30:25;2.03;;;0.80;;
59189;SDS011;50749;51.636;4.948;2022-11-15T11:33:07;1.90;;;1.27;;
59189;SDS011;50749;51.636;4.948;2022-11-15T11:35:48;2.22;;;0.93;;
59189;SDS011;50749;51.636;4.948;2022-11-15T11:39:00;4.20;;;0.70;;
59189;SDS011;50749;51.636;4.948;2022-11-15T11:49:16;2.20;;;0.85;;
59189;SDS011;50749;51.636;4.948;2022-11-15T11:52:03;2.28;;;1.10;;
59189;SDS011;50749;51.636;4.948;2022-11-15T11:54:48;1.90;;;0.70;;
59189;SDS011;50749;51.636;4.948;2022-11-15T12:00:21;1.85;;;0.70;;
59189;SDS011;50749;51.636;4.948;2022-11-15T12:10:41;2.85;;;1.08;;
59189;SDS011;50749;51.636;4.948;2022-11-15T12:13:18;1.23;;;0.70;;
59189;SDS011;50749;51.636;4.948;2022-11-15T12:15:52;2.17;;;0.70;;
59189;SDS011;50749;51.636;4.948;2022-11-15T12:18:23;2.17;;;1.05;;
59189;SDS011;50749;51.636;4.948;2022-11-15T12:20:51;0.88;;;0.50;;
59189;SDS011;50749;51.636;4.948;2022-11-15T12:23:30;1.48;;;0.75;;
59189;SDS011;50749;51.636;4.948;2022-11-15T12:26:04;1.40;;;0.60;;
59189;SDS011;50749;51.636;4.948;2022-11-15T12:28:37;2.42;;;0.70;;
59189;SDS011;50749;51.636;4.948;2022-11-15T12:31:39;1.35;;;0.70;;
59189;SDS011;50749;51.636;4.948;2022-11-15T12:34:15;1.08;;;0.75;;
59189;SDS011;50749;51.636;4.948;2022-11-15T12:36:44;1.40;;;0.65;;
59189;SDS011;50749;51.636;4.948;2022-11-15T12:39:10;3.05;;;0.70;;
59189;SDS011;50749;51.636;4.948;2022-11-15T12:41:38;2.08;;;0.70;;
59189;SDS011;50749;51.636;4.948;2022-11-15T12:44:12;21.48;;;2.45;;
59189;SDS011;50749;51.636;4.948;2022-11-15T12:47:21;1.73;;;0.57;;
59189;SDS011;50749;51.636;4.948;2022-11-15T12:49:49;2.60;;;0.75;;
59189;SDS011;50749;51.636;4.948;2022-11-15T12:52:15;4.72;;;0.60;;
59189;SDS011;50749;51.636;4.948;2022-11-15T12:59:52;0.85;;;0.45;;
59189;SDS011;50749;51.636;4.948;2022-11-15T13:02:24;2.92;;;0.60;;
59189;SDS011;50749;51.636;4.948;2022-11-15T13:04:53;1.98;;;0.60;;
59189;SDS011;50749;51.636;4.948;2022-11-15T13:20:17;3.95;;;0.60;;
59189;SDS011;50749;51.636;4.948;2022-11-15T13:23:09;4.50;;;0.88;;
59189;SDS011;50749;51.636;4.948;2022-11-15T13:31:18;1.17;;;0.45;;
59189;SDS011;50749;51.636;4.948;2022-11-15T13:33:51;2.28;;;0.63;;
59189;SDS011;50749;51.636;4.948;2022-11-15T13:36:19;1.75;;;0.50;;
59189;SDS011;50749;51.636;4.948;2022-11-15T13:38:54;2.42;;;0.73;;
59189;SDS011;50749;51.636;4.948;2022-11-15T13:41:26;4.22;;;0.60;;
59189;SDS011;50749;51.636;4.948;2022-11-15T13:43:54;2.22;;;0.68;;
59189;SDS011;50749;51.636;4.948;2022-11-15T13:46:31;2.20;;;0.52;;
59189;SDS011;50749;51.636;4.948;2022-11-15T13:49:19;3.15;;;0.70;;
59189;SDS011;50749;51.636;4.948;2022-11-15T13:51:54;1.48;;;0.43;;
59189;SDS011;50749;51.636;4.948;2022-11-15T13:56:52;2.40;;;0.65;;
59189;SDS011;50749;51.636;4.948;2022-11-15T14:04:23;1.10;;;0.52;;
59189;SDS011;50749;51.636;4.948;2022-11-15T14:06:52;2.08;;;0.77;;
59189;SDS011;50749;51.636;4.948;2022-11-15T14:11:56;3.38;;;1.05;;
59189;SDS011;50749;51.636;4.948;2022-11-15T14:14:25;1.33;;;0.40;;
59189;SDS011;50749;51.636;4.948;2022-11-15T14:16:54;3.53;;;0.52;;
59189;SDS011;50749;51.636;4.948;2022-11-15T14:22:09;1.05;;;0.50;;
59189;SDS011;50749;51.636;4.948;2022-11-15T14:27:41;2.20;;;0.55;;
59189;SDS011;50749;51.636;4.948;2022-11-15T14:30:17;1.63;;;0.50;;
59189;SDS011;50749;51.636;4.948;2022-11-15T14:32:49;5.78;;;1.20;;
59189;SDS011;50749;51.636;4.948;2022-11-15T14:35:20;1.33;;;0.68;;
59189;SDS011;50749;51.636;4.948;2022-11-15T14:37:47;0.82;;;0.43;;
59189;SDS011;50749;51.636;4.948;2022-11-15T14:40:18;2.88;;;0.60;;
59189;SDS011;50749;51.636;4.948;2022-11-15T14:42:46;2.90;;;0.80;;
59189;SDS011;50749;51.636;4.948;2022-11-15T14:45:17;2.25;;;0.80;;
59189;SDS011;50749;51.636;4.948;2022-11-15T14:47:44;2.03;;;0.73;;
59189;SDS011;50749;51.636;4.948;2022-11-15T14:50:14;2.25;;;0.40;;
59189;SDS011;50749;51.636;4.948;2022-11-15T14:52:42;2.80;;;0.82;;
59189;SDS011;50749;51.636;4.948;2022-11-15T14:55:30;1.15;;;0.60;;
59189;SDS011;50749;51.636;4.948;2022-11-15T14:58:00;1.50;;;0.52;;
59189;SDS011;50749;51.636;4.948;2022-11-15T15:00:30;0.70;;;0.40;;
59189;SDS011;50749;51.636;4.948;2022-11-15T15:02:57;1.52;;;0.55;;
59189;SDS011;50749;51.636;4.948;2022-11-15T15:05:27;2.17;;;0.50;;
59189;SDS011;50749;51.636;4.948;2022-11-15T15:07:54;3.20;;;0.68;;
59189;SDS011;50749;51.636;4.948;2022-11-15T15:10:20;3.58;;;0.70;;
59189;SDS011;50749;51.636;4.948;2022-11-15T15:12:48;2.95;;;0.90;;
59189;SDS011;50749;51.636;4.948;2022-11-15T15:15:36;2.10;;;0.60;;
59189;SDS011;50749;51.636;4.948;2022-11-15T15:18:01;0.90;;;0.40;;
59189;SDS011;50749;51.636;4.948;2022-11-15T15:20:28;1.80;;;0.60;;
59189;SDS011;50749;51.636;4.948;2022-11-15T15:22:54;2.55;;;0.60;;
59189;SDS011;50749;51.636;4.948;2022-11-15T15:27:46;3.92;;;1.13;;
59189;SDS011;50749;51.636;4.948;2022-11-15T15:30:13;0.95;;;0.30;;
59189;SDS011;50749;51.636;4.948;2022-11-15T15:32:39;2.78;;;0.50;;
59189;SDS011;50749;51.636;4.948;2022-11-15T15:35:07;1.27;;;0.50;;
59189;SDS011;50749;51.636;4.948;2022-11-15T15:37:36;2.90;;;0.75;;
59189;SDS011;50749;51.636;4.948;2022-11-15T15:40:08;1.42;;;0.57;;
59189;SDS011;50749;51.636;4.948;2022-11-15T15:42:42;3.03;;;0.52;;
59189;SDS011;50749;51.636;4.948;2022-11-15T15:45:09;2.88;;;0.60;;
59189;SDS011;50749;51.636;4.948;2022-11-15T15:47:35;1.60;;;0.68;;
59189;SDS011;50749;51.636;4.948;2022-11-15T15:50:02;3.08;;;0.77;;
59189;SDS011;50749;51.636;4.948;2022-11-15T15:52:28;2.03;;;0.68;;
59189;SDS011;50749;51.636;4.948;2022-11-15T15:54:54;1.77;;;0.57;;
59189;SDS011;50749;51.636;4.948;2022-11-15T15:57:19;2.67;;;0.50;;
59189;SDS011;50749;51.636;4.948;2022-11-15T15:59:45;2.05;;;0.77;;
59189;SDS011;50749;51.636;4.948;2022-11-15T16:02:11;1.27;;;0.43;;
59189;SDS011;50749;51.636;4.948;2022-11-15T16:04:38;2.50;;;0.63;;
59189;SDS011;50749;51.636;4.948;2022-11-15T16:07:04;5.43;;;0.73;;
59189;SDS011;50749;51.636;4.948;2022-11-15T16:09:30;1.63;;;0.70;;
59189;SDS011;50749;51.636;4.948;2022-11-15T16:12:14;4.07;;;1.00;;
59189;SDS011;50749;51.636;4.948;2022-11-15T16:14:42;2.25;;;0.57;;
59189;SDS011;50749;51.636;4.948;2022-11-15T16:17:18;3.97;;;0.63;;
59189;SDS011;50749;51.636;4.948;2022-11-15T16:19:47;5.18;;;0.80;;
59189;SDS011;50749;51.636;4.948;2022-11-15T16:22:12;3.10;;;0.90;;
59189;SDS011;50749;51.636;4.948;2022-11-15T16:24:38;1.13;;;0.50;;
59189;SDS011;50749;51.636;4.948;2022-11-15T16:27:04;1.40;;;0.50;;
59189;SDS011;50749;51.636;4.948;2022-11-15T16:29:30;2.85;;;0.60;;
59189;SDS011;50749;51.636;4.948;2022-11-15T16:31:56;1.40;;;0.50;;
59189;SDS011;50749;51.636;4.948;2022-11-15T16:34:22;1.20;;;0.80;;
59189;SDS011;50749;51.636;4.948;2022-11-15T16:36:49;1.05;;;0.40;;
59189;SDS011;50749;51.636;4.948;2022-11-15T16:39:16;1.42;;;0.70;;
59189;SDS011;50749;51.636;4.948;2022-11-15T16:41:43;3.28;;;0.80;;
59189;SDS011;50749;51.636;4.948;2022-11-15T16:44:14;2.85;;;0.80;;
59189;SDS011;50749;51.636;4.948;2022-11-15T16:46:41;6.50;;;0.65;;
59189;SDS011;50749;51.636;4.948;2022-11-15T16:49:12;2.17;;;0.40;;
59189;SDS011;50749;51.636;4.948;2022-11-15T16:51:39;2.13;;;0.68;;
59189;SDS011;50749;51.636;4.948;2022-11-15T16:54:06;1.67;;;0.50;;
59189;SDS011;50749;51.636;4.948;2022-11-15T16:56:32;1.55;;;0.63;;
59189;SDS011;50749;51.636;4.948;2022-11-15T16:58:59;2.88;;;1.00;;
59189;SDS011;50749;51.636;4.948;2022-11-15T17:01:26;2.63;;;0.60;;
59189;SDS011;50749;51.636;4.948;2022-11-15T17:04:11;2.65;;;0.50;;
59189;SDS011;50749;51.636;4.948;2022-11-15T17:06:38;0.90;;;0.50;;
59189;SDS011;50749;51.636;4.948;2022-11-15T17:09:05;2.35;;;0.70;;